Time;durP1;ratioP1;P1;durP2;ratioP2;P2;SDS_P1;SDS_P2;PMS_P1;PMS_P2;Temp;Humidity;BMP_temperature;BMP_pressure;BME280_temperature;BME280_humidity;BME280_pressure;Samples;Min_cycle;Max_cycle;Signal;HPM_P1;HPM_P2
2022/04/01 00:02:23;;;;;;;1.92;1.40;;;3.30;98.00;;;;;;5102656;28;20027;-71
2022/04/01 00:04:49;;;;;;;4.22;1.67;;;3.30;98.20;;;;;;5102089;28;20054;-70
2022/04/01 00:07:15;;;;;;;4.07;1.45;;;3.30;98.30;;;;;;5102301;28;20024;-71
2022/04/01 00:09:40;;;;;;;4.22;1.40;;;3.30;98.40;;;;;;5084757;28;20024;-71
2022/04/01 00:12:08;;;;;;;1.58;1.20;;;3.20;98.50;;;;;;5102480;28;20020;-70
2022/04/01 00:14:34;;;;;;;1.95;1.38;;;3.30;98.60;;;;;;5067562;28;20024;-69
2022/04/01 00:17:00;;;;;;;5.18;1.50;;;3.30;98.50;;;;;;5085627;28;20032;-70
2022/04/01 00:19:27;;;;;;;1.60;1.25;;;3.20;98.60;;;;;;5085617;28;20092;-70
2022/04/01 00:21:53;;;;;;;4.07;1.50;;;3.20;98.70;;;;;;5102150;28;20044;-70
2022/04/01 00:24:19;;;;;;;3.72;1.90;;;3.20;98.70;;;;;;5085530;28;20111;-70
2022/04/01 00:26:46;;;;;;;2.85;1.67;;;3.30;98.60;;;;;;5102402;28;20315;-71
2022/04/01 00:29:16;;;;;;;2.10;1.70;;;3.30;98.60;;;;;;5102255;28;20062;-71
2022/04/01 00:31:45;;;;;;;2.50;1.63;;;3.20;98.70;;;;;;5102266;28;20077;-70
2022/04/01 00:34:18;;;;;;;2.95;1.80;;;3.30;98.70;;;;;;5090047;28;20086;-71
2022/04/01 00:36:46;;;;;;;4.97;1.58;;;3.20;98.70;;;;;;5090765;28;20299;-70
2022/04/01 00:39:13;;;;;;;3.05;1.80;;;3.20;98.90;;;;;;5122899;28;20019;-70
2022/04/01 00:41:40;;;;;;;2.63;1.60;;;3.20;99.00;;;;;;5105302;28;20019;-70
2022/04/01 00:44:23;;;;;;;2.42;1.48;;;3.20;99.00;;;;;;5123479;28;20048;-70
2022/04/01 00:46:59;;;;;;;2.67;1.67;;;3.10;99.00;;;;;;5112993;28;20268;-71
2022/04/01 00:49:26;;;;;;;5.20;1.90;;;3.20;99.00;;;;;;5102095;28;20016;-71
2022/04/01 00:51:55;;;;;;;3.35;1.33;;;3.10;99.10;;;;;;5085487;28;20024;-71
2022/04/01 00:54:21;;;;;;;4.38;1.60;;;3.10;99.20;;;;;;5102303;28;20020;-71
2022/04/01 00:56:48;;;;;;;2.72;1.30;;;3.10;99.10;;;;;;5102124;28;20016;-72
2022/04/01 00:59:15;;;;;;;4.70;1.50;;;3.10;99.20;;;;;;5085077;28;20314;-71
2022/04/01 01:01:43;;;;;;;2.88;1.60;;;3.00;99.30;;;;;;5103151;28;20024;-71
2022/04/01 01:04:13;;;;;;;3.25;1.30;;;3.00;99.60;;;;;;5103294;28;20011;-70
2022/04/01 01:06:43;;;;;;;4.47;1.27;;;3.00;99.30;;;;;;5085321;28;20040;-71
2022/04/01 01:09:10;;;;;;;3.20;1.20;;;3.00;99.40;;;;;;5102225;28;20034;-70
2022/04/01 01:11:36;;;;;;;2.17;1.35;;;2.90;99.40;;;;;;5084941;28;20346;-70
2022/04/01 01:14:04;;;;;;;3.53;1.40;;;2.80;99.60;;;;;;5103111;28;20322;-70
2022/04/01 01:16:31;;;;;;;3.90;1.60;;;2.90;99.80;;;;;;5083476;28;20016;-71
2022/04/01 01:19:17;;;;;;;3.38;1.50;;;2.90;99.80;;;;;;5101654;28;20028;-71
2022/04/01 01:21:46;;;;;;;4.07;1.50;;;2.80;99.90;;;;;;5087753;28;20020;-70
2022/04/01 01:24:15;;;;;;;3.08;1.40;;;2.80;99.90;;;;;;5105696;28;20170;-70
2022/04/01 01:26:43;;;;;;;2.05;1.30;;;2.80;99.90;;;;;;5105532;28;20028;-71
2022/04/01 01:29:11;;;;;;;5.78;1.67;;;2.80;99.90;;;;;;5105344;28;20250;-71
2022/04/01 01:31:37;;;;;;;2.47;1.30;;;2.80;99.90;;;;;;5105249;28;20283;-71
2022/04/01 01:34:04;;;;;;;7.13;1.50;;;2.80;99.90;;;;;;5102074;28;20012;-71
2022/04/01 01:36:30;;;;;;;3.17;1.60;;;2.80;99.90;;;;;;5085844;28;20021;-70
2022/04/01 01:38:57;;;;;;;4.03;1.63;;;2.70;99.90;;;;;;5085234;28;20215;-71
2022/04/01 01:41:25;;;;;;;5.18;1.45;;;2.70;99.90;;;;;;5085686;28;20035;-70
2022/04/01 01:43:51;;;;;;;5.00;1.40;;;2.60;99.90;;;;;;5068676;28;20338;-71
2022/04/01 01:46:18;;;;;;;6.28;1.30;;;2.70;99.90;;;;;;5072658;28;20105;-72
2022/04/01 01:48:43;;;;;;;3.03;1.13;;;2.70;99.90;;;;;;5071655;28;20111;-70
2022/04/01 01:56:41;;;;;;;3.85;1.48;;;2.60;99.80;;;;;;5105140;28;20023;-69
2022/04/01 01:59:11;;;;;;;5.22;1.15;;;2.60;99.70;;;;;;5088165;28;20016;-70
2022/04/01 02:01:38;;;;;;;3.10;1.23;;;2.60;99.70;;;;;;5088496;28;20012;-70
2022/04/01 02:04:03;;;;;;;2.40;1.20;;;2.60;99.90;;;;;;5104942;28;20061;-70
2022/04/01 02:06:29;;;;;;;1.92;1.20;;;2.60;99.80;;;;;;5104495;28;20031;-71
2022/04/01 02:08:55;;;;;;;3.25;1.42;;;2.60;99.60;;;;;;5071346;28;20024;-70
2022/04/01 02:11:22;;;;;;;4.03;1.50;;;2.60;99.60;;;;;;5087502;28;20024;-70
2022/04/01 02:13:48;;;;;;;4.68;1.40;;;2.60;99.70;;;;;;5071315;28;20051;-72
2022/04/01 02:16:14;;;;;;;2.20;1.20;;;2.50;99.70;;;;;;5102659;28;20321;-70
2022/04/01 02:18:41;;;;;;;3.38;1.42;;;2.60;99.70;;;;;;5105505;28;20026;-71
2022/04/01 02:21:11;;;;;;;4.32;1.35;;;2.50;99.70;;;;;;5087683;28;20028;-71
2022/04/01 02:23:38;;;;;;;3.53;1.33;;;2.50;99.80;;;;;;5104215;28;20026;-70
2022/04/01 02:26:05;;;;;;;3.75;1.40;;;2.50;99.80;;;;;;5087259;28;20246;-71
2022/04/01 02:28:32;;;;;;;7.10;1.55;;;2.50;99.90;;;;;;5104204;28;20019;-70
2022/04/01 02:30:57;;;;;;;6.70;1.50;;;2.50;99.60;;;;;;5087367;28;20051;-72
2022/04/01 02:33:23;;;;;;;4.35;1.38;;;2.50;99.70;;;;;;5103819;28;20020;-71
2022/04/01 02:35:50;;;;;;;4.78;1.38;;;2.50;99.60;;;;;;5105431;28;20020;-70
2022/04/01 02:38:16;;;;;;;4.50;1.55;;;2.50;99.60;;;;;;5107523;28;20023;-71
2022/04/01 02:40:41;;;;;;;5.53;1.00;;;2.40;99.70;;;;;;5124353;28;20019;-71
2022/04/01 02:43:07;;;;;;;3.15;1.30;;;2.40;99.70;;;;;;5125491;28;20015;-71
2022/04/01 02:45:33;;;;;;;4.72;1.15;;;2.40;99.70;;;;;;5123723;28;20074;-71
2022/04/01 02:47:58;;;;;;;6.93;1.40;;;2.40;99.70;;;;;;5088056;28;20327;-70
2022/04/01 02:50:26;;;;;;;3.25;1.10;;;2.40;99.60;;;;;;5086909;28;20020;-71
2022/04/01 02:52:51;;;;;;;4.80;1.20;;;2.40;99.50;;;;;;5070674;28;20019;-70
2022/04/01 02:55:17;;;;;;;1.50;1.00;;;2.30;99.70;;;;;;5070137;28;20111;-71
2022/04/01 02:57:44;;;;;;;4.45;1.30;;;2.30;99.60;;;;;;5086439;28;20334;-69
2022/04/01 03:00:10;;;;;;;4.15;1.00;;;2.30;99.50;;;;;;5086944;28;20093;-70
2022/04/01 03:02:38;;;;;;;4.00;1.02;;;2.30;99.60;;;;;;5086586;28;20322;-69
2022/04/01 03:05:05;;;;;;;5.53;1.52;;;2.30;99.50;;;;;;5103369;28;20032;-71
2022/04/01 03:07:31;;;;;;;3.83;1.05;;;2.30;99.50;;;;;;5103449;28;20026;-71
2022/04/01 03:09:56;;;;;;;1.65;0.90;;;2.40;99.40;;;;;;5086313;28;20020;-70
2022/04/01 03:12:22;;;;;;;1.98;0.98;;;2.30;99.30;;;;;;5086273;28;20023;-70
2022/04/01 03:14:49;;;;;;;4.68;1.40;;;2.30;99.30;;;;;;5103211;28;20035;-71
2022/04/01 03:17:14;;;;;;;4.25;1.40;;;2.30;99.30;;;;;;5084386;28;20043;-70
2022/04/01 03:19:40;;;;;;;3.13;1.30;;;2.30;99.30;;;;;;5069818;28;20321;-71
2022/04/01 03:22:06;;;;;;;5.00;1.10;;;2.40;99.30;;;;;;5069642;28;20038;-70
2022/04/01 03:24:32;;;;;;;4.47;1.20;;;2.30;99.30;;;;;;5104383;28;20020;-72
2022/04/01 03:26:58;;;;;;;5.38;1.05;;;2.30;99.10;;;;;;5103156;28;20295;-71
2022/04/01 03:29:24;;;;;;;2.63;1.10;;;2.40;99.10;;;;;;5103112;28;20030;-70
2022/04/01 03:31:51;;;;;;;1.35;1.05;;;2.40;99.10;;;;;;5104344;28;20031;-70
2022/04/01 03:34:17;;;;;;;4.93;1.27;;;2.40;99.10;;;;;;5091204;28;20039;-71
2022/04/01 03:36:44;;;;;;;5.13;1.17;;;2.40;99.10;;;;;;5123580;28;20319;-70
2022/04/01 03:39:10;;;;;;;2.75;1.08;;;2.30;99.10;;;;;;5106176;28;20020;-71
2022/04/01 03:41:36;;;;;;;2.95;1.10;;;2.20;99.30;;;;;;5105896;28;20020;-72
2022/04/01 03:44:02;;;;;;;2.78;1.15;;;2.30;99.40;;;;;;5105772;28;20263;-71
2022/04/01 03:46:53;;;;;;;9.20;2.75;;;2.20;99.40;;;;;;5116086;28;20047;-71
2022/04/01 03:49:22;;;;;;;0.95;0.80;;;2.20;99.50;;;;;;5088957;28;20256;-71
2022/04/01 03:51:49;;;;;;;4.15;1.33;;;2.10;99.60;;;;;;5102783;28;20016;-70
2022/04/01 03:54:16;;;;;;;3.55;1.00;;;2.20;99.50;;;;;;5102974;28;20019;-70
2022/04/01 03:56:48;;;;;;;5.25;1.20;;;2.10;99.50;;;;;;5086033;28;20046;-70
2022/04/01 03:59:17;;;;;;;4.53;1.20;;;2.10;99.50;;;;;;5069532;28;20090;-70
2022/04/01 04:01:43;;;;;;;1.92;1.17;;;2.10;99.60;;;;;;5069228;28;20024;-70
2022/04/01 04:04:09;;;;;;;4.68;1.15;;;2.10;99.60;;;;;;5102651;28;20353;-71
2022/04/01 04:06:35;;;;;;;5.88;1.38;;;2.10;99.60;;;;;;5085522;28;20035;-71
2022/04/01 04:09:03;;;;;;;2.78;1.15;;;2.10;99.80;;;;;;5102499;28;20091;-70
2022/04/01 04:11:31;;;;;;;5.03;1.55;;;2.10;99.70;;;;;;5069227;28;20016;-70
2022/04/01 04:13:59;;;;;;;6.63;1.17;;;2.10;99.60;;;;;;5102561;28;20023;-71
2022/04/01 04:16:36;;;;;;;3.95;1.25;;;2.10;99.80;;;;;;5085926;28;20091;-71
2022/04/01 04:19:09;;;;;;;5.00;1.42;;;2.10;99.80;;;;;;5100826;28;20012;-70
2022/04/01 04:21:41;;;;;;;3.63;1.48;;;2.10;99.60;;;;;;5102079;28;20319;-70
2022/04/01 04:24:17;;;;;;;6.90;1.40;;;2.00;99.90;;;;;;5082434;28;20052;-70
2022/04/01 04:26:48;;;;;;;5.15;1.10;;;2.00;99.90;;;;;;5066319;28;20035;-71
2022/04/01 04:29:16;;;;;;;3.42;1.00;;;2.00;99.90;;;;;;5081859;28;20353;-70
2022/04/01 04:32:02;;;;;;;6.15;0.95;;;2.10;99.90;;;;;;5082267;28;20051;-71
2022/04/01 04:34:34;;;;;;;3.05;1.27;;;2.10;99.90;;;;;;5066012;28;20103;-70
2022/04/01 04:37:02;;;;;;;4.82;0.90;;;2.10;99.90;;;;;;5081774;28;20017;-71
2022/04/01 04:39:33;;;;;;;2.50;0.95;;;2.00;99.90;;;;;;5098808;28;20023;-70
2022/04/01 04:42:01;;;;;;;1.27;0.80;;;2.00;99.90;;;;;;5081640;28;20028;-70
2022/04/01 04:44:29;;;;;;;5.13;1.00;;;2.00;99.90;;;;;;5098580;28;20116;-69
2022/04/01 04:46:57;;;;;;;4.65;1.10;;;2.00;99.90;;;;;;5102176;28;20020;-70
2022/04/01 04:49:27;;;;;;;4.65;0.90;;;2.10;99.90;;;;;;5102956;28;20022;-70
2022/04/01 04:51:54;;;;;;;1.42;0.93;;;2.00;99.90;;;;;;5102895;28;20299;-71
2022/04/01 04:54:21;;;;;;;3.30;1.08;;;2.00;99.90;;;;;;5085501;28;20065;-71
2022/04/01 04:56:52;;;;;;;1.77;1.25;;;2.10;99.90;;;;;;5106202;28;20264;-71
2022/04/01 04:59:20;;;;;;;4.45;1.17;;;2.10;99.80;;;;;;5107154;28;20035;-70
2022/04/01 05:01:58;;;;;;;6.28;0.93;;;2.00;99.90;;;;;;5107085;28;20012;-71
2022/04/01 05:05:04;;;;;;;4.63;0.85;;;2.00;99.90;;;;;;5072790;28;20020;-71
2022/04/01 05:07:52;;;;;;;4.75;1.23;;;2.10;99.90;;;;;;5080538;28;20024;-70
2022/04/01 05:10:26;;;;;;;3.25;0.80;;;2.00;99.80;;;;;;5105648;28;20027;-70
2022/04/01 05:13:20;;;;;;;4.25;1.08;;;2.00;99.90;;;;;;5072318;28;20093;-70
2022/04/01 05:15:53;;;;;;;5.00;0.90;;;2.10;99.90;;;;;;5092792;28;20020;-70
2022/04/01 05:18:38;;;;;;;4.30;0.90;;;2.10;99.90;;;;;;5086973;28;20066;-70
2022/04/01 05:21:04;;;;;;;5.45;1.00;;;2.10;99.80;;;;;;5105090;28;20103;-71
2022/04/01 05:23:59;;;;;;;5.47;1.20;;;2.10;99.80;;;;;;5068543;28;20123;-70
2022/04/01 05:26:38;;;;;;;2.40;0.90;;;2.00;99.90;;;;;;5085192;28;20375;-70
2022/04/01 05:29:09;;;;;;;2.00;0.90;;;2.00;99.90;;;;;;5085603;28;20096;-70
2022/04/01 05:31:40;;;;;;;6.27;1.20;;;2.00;99.90;;;;;;5085154;28;20079;-71
2022/04/01 05:34:15;;;;;;;2.42;1.10;;;2.00;99.90;;;;;;5091458;28;20263;-71
2022/04/01 05:36:42;;;;;;;4.28;1.20;;;1.90;99.90;;;;;;5125705;28;20035;-70
2022/04/01 05:39:11;;;;;;;5.97;1.13;;;2.00;99.90;;;;;;5125719;28;20029;-72
2022/04/01 05:41:37;;;;;;;6.68;1.00;;;1.90;99.90;;;;;;5091352;28;20314;-70
2022/04/01 05:44:05;;;;;;;5.50;1.38;;;1.90;99.90;;;;;;5108402;28;20064;-71
2022/04/01 05:46:33;;;;;;;6.20;1.10;;;1.90;99.90;;;;;;5101493;28;20034;-70
2022/04/01 05:49:00;;;;;;;3.28;1.10;;;1.90;99.90;;;;;;5106025;28;20024;-71
2022/04/01 05:51:29;;;;;;;5.13;1.30;;;2.00;99.90;;;;;;5087934;28;20020;-70
2022/04/01 05:53:56;;;;;;;2.13;0.98;;;1.90;99.90;;;;;;5087605;28;20322;-70
2022/04/01 05:56:22;;;;;;;4.28;1.42;;;1.90;99.90;;;;;;5088265;28;20050;-70
2022/04/01 05:58:48;;;;;;;3.58;1.05;;;1.90;99.90;;;;;;5088026;28;20024;-71
2022/04/01 06:01:30;;;;;;;7.10;1.40;;;1.90;99.90;;;;;;5104402;28;20019;-69
2022/04/01 06:04:24;;;;;;;2.30;1.05;;;1.90;99.90;;;;;;5086993;28;20020;-70
2022/04/01 06:06:59;;;;;;;3.75;1.23;;;1.90;99.90;;;;;;5074285;28;20494;-70
2022/04/01 06:10:05;;;;;;;4.18;1.23;;;1.90;99.90;;;;;;5072139;28;20293;-70
2022/04/01 06:13:10;;;;;;;12.30;1.63;;;2.00;99.90;;;;;;5093415;28;20048;-70
2022/04/01 06:16:11;;;;;;;5.07;1.20;;;2.00;99.90;;;;;;5079273;28;20019;-70
2022/04/01 06:19:01;;;;;;;3.22;1.20;;;2.00;99.90;;;;;;5092290;28;20099;-72
2022/04/01 06:21:31;;;;;;;3.10;1.13;;;2.00;99.90;;;;;;5090506;28;20088;-70
2022/04/01 06:24:29;;;;;;;4.15;1.08;;;2.00;99.90;;;;;;5084564;28;20031;-70
2022/04/01 06:27:00;;;;;;;7.90;1.60;;;2.00;99.90;;;;;;5071728;28;20063;-71
2022/04/01 06:29:39;;;;;;;3.38;0.95;;;2.00;99.90;;;;;;5083957;28;20024;-71
2022/04/01 06:32:29;;;;;;;3.00;1.30;;;2.10;99.90;;;;;;5083323;28;20051;-70
2022/04/01 06:35:21;;;;;;;2.88;1.38;;;2.10;99.90;;;;;;5104981;28;20304;-71
2022/04/01 06:37:58;;;;;;;4.68;1.15;;;2.10;99.90;;;;;;5125792;28;20030;-71
2022/04/01 06:40:29;;;;;;;7.10;1.52;;;2.20;99.90;;;;;;5106775;28;20023;-70
2022/04/01 06:42:55;;;;;;;2.72;1.25;;;2.20;99.90;;;;;;5107177;28;20016;-72
2022/04/01 06:45:21;;;;;;;3.40;1.30;;;2.30;99.90;;;;;;5125610;28;20101;-72
2022/04/01 06:47:47;;;;;;;5.10;1.50;;;2.30;99.90;;;;;;5072522;28;20024;-72
2022/04/01 06:50:16;;;;;;;5.25;1.30;;;2.30;99.90;;;;;;5087114;28;20211;-72
2022/04/01 06:52:42;;;;;;;3.90;1.38;;;2.30;99.90;;;;;;5102674;28;20083;-70
2022/04/01 06:55:09;;;;;;;4.30;1.63;;;2.40;99.90;;;;;;5103714;28;20024;-71
2022/04/01 06:57:35;;;;;;;5.80;1.25;;;2.50;99.90;;;;;;5103981;28;20015;-70
2022/04/01 07:00:05;;;;;;;3.90;1.55;;;2.50;99.90;;;;;;5087066;28;20053;-71
2022/04/01 07:02:31;;;;;;;3.28;1.30;;;2.50;99.80;;;;;;5104583;28;20046;-71
2022/04/01 07:04:57;;;;;;;3.20;1.38;;;2.60;99.80;;;;;;5086779;28;20254;-71
2022/04/01 07:07:22;;;;;;;5.65;1.27;;;2.60;99.60;;;;;;5103563;28;20269;-70
2022/04/01 07:09:48;;;;;;;5.35;1.35;;;2.70;99.90;;;;;;5090106;28;20027;-70
2022/04/01 07:12:14;;;;;;;4.70;1.80;;;2.70;99.60;;;;;;5085394;28;20083;-68
2022/04/01 07:14:39;;;;;;;3.20;1.40;;;2.80;99.70;;;;;;5101564;28;20065;-67
2022/04/01 07:17:05;;;;;;;9.90;1.58;;;2.80;99.30;;;;;;5100413;28;20210;-68
2022/04/01 07:19:31;;;;;;;4.95;1.38;;;2.80;99.70;;;;;;5103455;28;20111;-70
2022/04/01 07:21:57;;;;;;;4.32;1.20;;;3.00;99.30;;;;;;5066802;28;20304;-67
2022/04/01 07:24:25;;;;;;;3.38;1.17;;;2.90;98.90;;;;;;5096190;28;20365;-71
2022/04/01 07:26:51;;;;;;;4.82;1.33;;;3.00;99.10;;;;;;5102800;28;20077;-70
2022/04/01 07:29:17;;;;;;;2.53;1.20;;;3.00;99.20;;;;;;5082408;28;20092;-67
2022/04/01 07:34:39;;;;;;;2.35;1.25;;;3.10;98.90;;;;;;5096640;28;20033;-71
2022/04/01 07:37:05;;;;;;;4.47;1.50;;;3.20;98.70;;;;;;5088117;28;20070;-69
2022/04/01 07:39:31;;;;;;;5.18;1.42;;;3.20;98.60;;;;;;5077754;28;20029;-68
2022/04/01 07:41:56;;;;;;;7.88;1.20;;;3.30;98.40;;;;;;5086623;28;20020;-67
2022/04/01 07:44:23;;;;;;;6.50;1.38;;;3.40;98.60;;;;;;5082109;28;20132;-69
2022/04/01 07:46:50;;;;;;;4.90;1.20;;;3.50;98.00;;;;;;5064973;28;20054;-69
2022/04/01 07:49:17;;;;;;;2.00;1.30;;;3.50;97.90;;;;;;5085871;28;20032;-70
2022/04/01 07:51:43;;;;;;;1.23;0.68;;;3.50;98.00;;;;;;5085740;28;20047;-69
2022/04/01 07:54:11;;;;;;;6.57;2.03;;;3.60;97.70;;;;;;5100771;28;20012;-69
2022/04/01 07:56:40;;;;;;;5.20;1.40;;;3.70;97.60;;;;;;5079105;28;20070;-70
2022/04/01 07:59:07;;;;;;;7.93;1.27;;;3.70;97.30;;;;;;5102545;28;20325;-68
2022/04/01 08:01:34;;;;;;;6.90;1.77;;;3.70;97.00;;;;;;5082096;28;20027;-70
2022/04/01 08:03:59;;;;;;;6.18;1.25;;;3.70;97.20;;;;;;5072345;28;20020;-71
2022/04/01 08:06:25;;;;;;;7.15;1.30;;;3.80;96.80;;;;;;5081977;28;20029;-67
2022/04/01 08:08:52;;;;;;;1.50;0.93;;;3.80;96.80;;;;;;5086543;28;20052;-69
2022/04/01 08:11:17;;;;;;;5.63;1.40;;;3.90;96.90;;;;;;5083753;28;20069;-71
2022/04/01 08:13:43;;;;;;;4.97;1.30;;;3.90;96.80;;;;;;5066211;28;20048;-72
2022/04/01 08:16:10;;;;;;;5.38;1.20;;;4.00;96.70;;;;;;5102312;28;20083;-72
2022/04/01 08:18:36;;;;;;;6.43;1.63;;;4.20;96.60;;;;;;5101249;28;20020;-71
2022/04/01 08:21:02;;;;;;;3.20;0.90;;;4.20;96.20;;;;;;5098811;28;20061;-68
2022/04/01 08:23:34;;;;;;;3.85;1.80;;;4.10;96.40;;;;;;5097462;28;20033;-69
2022/04/01 08:26:02;;;;;;;4.93;1.13;;;4.10;96.60;;;;;;5074336;28;20029;-70
2022/04/01 08:28:28;;;;;;;8.18;1.67;;;4.30;96.80;;;;;;5081868;28;20039;-68
2022/04/01 08:30:53;;;;;;;5.20;1.63;;;4.40;96.00;;;;;;5084766;28;20027;-70
2022/04/01 08:33:20;;;;;;;6.03;1.40;;;4.40;96.00;;;;;;5105538;28;20091;-70
2022/04/01 08:35:47;;;;;;;4.13;1.60;;;4.50;96.00;;;;;;5088835;28;20016;-70
2022/04/01 08:38:13;;;;;;;9.43;1.98;;;4.50;95.50;;;;;;5099620;28;20016;-69
2022/04/01 08:40:38;;;;;;;2.88;1.20;;;4.50;95.60;;;;;;5097104;28;20055;-68
2022/04/01 08:43:05;;;;;;;5.20;1.90;;;4.60;95.50;;;;;;5090861;28;20020;-69
2022/04/01 08:45:34;;;;;;;2.13;1.30;;;4.60;95.20;;;;;;5086631;28;20060;-66
2022/04/01 08:48:00;;;;;;;4.03;1.20;;;4.70;95.20;;;;;;5104162;28;20031;-67
2022/04/01 08:50:26;;;;;;;5.65;1.35;;;4.70;94.90;;;;;;5092812;28;20084;-70
2022/04/01 08:52:53;;;;;;;5.63;1.35;;;4.80;94.90;;;;;;5068931;28;20024;-68
2022/04/01 08:55:19;;;;;;;4.60;1.30;;;4.90;94.60;;;;;;5086046;28;20220;-68
2022/04/01 08:57:45;;;;;;;6.20;1.75;;;5.00;94.30;;;;;;5088947;28;20303;-68
2022/04/01 09:00:32;;;;;;;4.65;1.00;;;4.90;94.10;;;;;;5107029;28;20024;-72
2022/04/01 09:03:01;;;;;;;1.17;0.90;;;4.90;93.80;;;;;;5105151;28;20020;-68
2022/04/01 09:05:27;;;;;;;3.65;1.00;;;5.00;94.10;;;;;;5104576;28;20043;-68
2022/04/01 09:08:02;;;;;;;4.07;1.40;;;5.10;94.00;;;;;;5106115;28;20027;-69
2022/04/01 09:10:28;;;;;;;4.50;1.02;;;5.20;93.70;;;;;;5088487;28;20291;-69
2022/04/01 09:12:54;;;;;;;2.88;1.20;;;5.20;93.70;;;;;;5087688;28;20024;-69
2022/04/01 09:15:21;;;;;;;3.65;0.80;;;5.30;94.00;;;;;;5100824;28;20083;-70
2022/04/01 09:17:48;;;;;;;6.05;1.40;;;5.50;93.30;;;;;;5101786;28;20031;-71
2022/04/01 09:20:15;;;;;;;5.25;1.10;;;5.50;93.50;;;;;;5083380;28;20029;-71
2022/04/01 09:22:43;;;;;;;5.30;1.13;;;5.70;93.10;;;;;;5083119;28;20303;-68
2022/04/01 09:25:15;;;;;;;2.83;1.50;;;5.80;93.10;;;;;;5085932;28;20130;-71
2022/04/01 09:27:48;;;;;;;2.60;0.80;;;5.70;93.10;;;;;;5104442;28;20020;-69
2022/04/01 09:30:17;;;;;;;7.13;1.17;;;5.90;92.90;;;;;;5104016;28;20035;-69
2022/04/01 09:32:49;;;;;;;6.25;1.17;;;6.00;92.00;;;;;;5066955;28;20356;-69
2022/04/01 09:35:16;;;;;;;;;;;6.10;91.70;;;;;;5113276;28;20020;-70
2022/04/01 09:37:45;;;;;;;0.93;0.80;;;6.10;91.50;;;;;;5108468;28;20100;-69
2022/04/01 09:40:14;;;;;;;2.13;0.90;;;6.10;91.60;;;;;;5107211;28;20064;-70
2022/04/01 09:42:40;;;;;;;3.45;1.00;;;6.10;91.40;;;;;;5066983;28;20099;-69
2022/04/01 09:45:06;;;;;;;5.05;1.00;;;6.30;91.70;;;;;;5084048;28;20426;-69
2022/04/01 09:47:38;;;;;;;2.08;0.85;;;6.30;91.40;;;;;;5082867;28;20024;-69
2022/04/01 09:50:13;;;;;;;6.00;1.08;;;6.50;91.10;;;;;;5104258;28;20023;-70
2022/04/01 09:52:40;;;;;;;5.25;0.82;;;6.30;90.80;;;;;;5105555;28;20043;-70
2022/04/01 09:55:07;;;;;;;4.80;0.70;;;6.20;90.90;;;;;;5067233;28;20302;-70
2022/04/01 09:57:34;;;;;;;6.43;1.25;;;6.40;90.80;;;;;;5085277;28;20047;-70
2022/04/01 09:59:59;;;;;;;5.78;0.70;;;6.50;90.90;;;;;;5083784;28;20308;-71
2022/04/01 10:02:26;;;;;;;9.43;1.08;;;6.60;90.70;;;;;;5067066;28;20017;-71
2022/04/01 10:04:54;;;;;;;1.83;0.80;;;6.80;90.60;;;;;;5057943;28;20051;-70
2022/04/01 10:07:23;;;;;;;3.40;0.75;;;6.80;90.40;;;;;;5082620;28;20020;-69
2022/04/01 10:09:50;;;;;;;4.03;1.25;;;7.10;90.20;;;;;;5087666;28;20090;-71
2022/04/01 10:12:19;;;;;;;5.40;1.15;;;7.20;87.90;;;;;;5070149;28;20119;-71
2022/04/01 10:14:45;;;;;;;5.00;0.90;;;7.30;87.40;;;;;;5085760;28;20020;-68
2022/04/01 10:17:14;;;;;;;2.22;0.47;;;7.40;87.10;;;;;;5084919;28;20052;-70
2022/04/01 10:19:45;;;;;;;4.88;1.15;;;7.40;84.60;;;;;;5078843;28;20048;-69
2022/04/01 10:22:16;;;;;;;4.70;1.20;;;7.40;82.40;;;;;;5079915;28;20036;-69
2022/04/01 10:25:22;;;;;;;1.35;0.40;;;7.50;82.00;;;;;;5100018;28;20042;-67
2022/04/01 10:27:50;;;;;;;1.60;0.70;;;7.40;82.00;;;;;;5084148;28;20047;-69
2022/04/01 10:30:18;;;;;;;6.40;0.70;;;7.10;81.80;;;;;;5085102;28;20074;-70
2022/04/01 10:32:48;;;;;;;5.05;1.10;;;7.10;83.10;;;;;;5086608;28;20032;-69
2022/04/01 10:35:34;;;;;;;4.75;0.50;;;7.40;83.70;;;;;;5099855;28;20315;-70
2022/04/01 10:38:19;;;;;;;1.88;0.70;;;7.20;81.50;;;;;;5087053;28;20024;-69
2022/04/01 10:40:50;;;;;;;8.07;0.95;;;6.90;81.40;;;;;;5078937;28;20065;-69
2022/04/01 10:43:21;;;;;;;2.75;0.85;;;6.90;82.20;;;;;;5096473;28;20042;-70
2022/04/01 10:46:10;;;;;;;3.00;0.57;;;6.70;80.70;;;;;;5077913;28;20076;-71
2022/04/01 10:51:41;;;;;;;3.22;0.77;;;7.00;79.50;;;;;;5100349;28;20099;-70
2022/04/01 10:54:35;;;;;;;4.78;0.63;;;7.20;80.00;;;;;;5094923;28;20215;-72
2022/04/01 10:57:06;;;;;;;2.38;0.65;;;7.40;80.10;;;;;;5074771;28;20039;-70
2022/04/01 10:59:44;;;;;;;3.67;0.90;;;7.60;80.40;;;;;;5067472;28;20024;-69
2022/04/01 11:02:13;;;;;;;8.27;0.95;;;7.80;78.90;;;;;;5066485;28;20346;-69
2022/04/01 11:04:43;;;;;;;3.28;0.57;;;7.80;77.10;;;;;;5084361;28;20024;-69
2022/04/01 11:07:30;;;;;;;3.20;0.70;;;7.80;76.70;;;;;;5087896;28;20094;-68
2022/04/01 11:09:58;;;;;;;2.95;0.70;;;7.80;77.20;;;;;;5065762;28;20081;-68
2022/04/01 11:12:45;;;;;;;2.17;0.60;;;7.90;75.50;;;;;;5082754;28;20035;-69
2022/04/01 11:15:14;;;;;;;3.35;0.68;;;7.90;75.50;;;;;;5069023;28;20097;-70
2022/04/01 11:18:00;;;;;;;5.28;0.82;;;8.00;76.10;;;;;;5083779;28;20028;-69
2022/04/01 11:20:27;;;;;;;1.58;0.70;;;8.10;75.60;;;;;;5078528;28;20020;-69
2022/04/01 11:23:03;;;;;;;7.20;0.90;;;8.20;75.60;;;;;;4988053;28;20049;-70
2022/04/01 11:25:52;;;;;;;3.80;0.73;;;7.90;74.60;;;;;;4989492;28;20097;-70
2022/04/01 11:28:19;;;;;;;1.65;0.50;;;7.60;76.00;;;;;;5006745;28;20072;-71
2022/04/01 11:31:04;;;;;;;2.90;0.85;;;7.70;76.00;;;;;;5002933;28;20034;-71
2022/04/01 11:33:29;;;;;;;2.05;0.75;;;7.70;73.50;;;;;;5002979;28;20014;-67
2022/04/01 11:35:57;;;;;;;5.43;1.15;;;7.80;73.80;;;;;;5037498;28;20225;-69
2022/04/01 11:38:25;;;;;;;2.88;0.60;;;7.90;73.80;;;;;;5003314;28;20053;-70
2022/04/01 11:40:54;;;;;;;4.90;0.68;;;8.20;74.50;;;;;;5010663;28;20028;-68
2022/04/01 11:43:21;;;;;;;3.22;0.82;;;8.30;74.20;;;;;;5020675;28;20025;-68
2022/04/01 11:45:51;;;;;;;2.17;0.68;;;8.10;73.30;;;;;;4990663;28;20046;-68
2022/04/01 11:48:37;;;;;;;1.92;0.52;;;8.00;74.30;;;;;;5006233;28;20101;-72
2022/04/01 11:51:16;;;;;;;4.53;0.70;;;8.10;74.30;;;;;;5004881;28;20033;-70
2022/04/01 11:53:47;;;;;;;3.85;0.68;;;8.00;73.80;;;;;;5021165;28;20089;-70
2022/04/01 11:56:14;;;;;;;1.40;0.60;;;8.00;75.10;;;;;;5021987;28;20021;-70
2022/04/01 11:58:59;;;;;;;2.45;0.70;;;8.00;73.10;;;;;;5005842;28;20052;-70
2022/04/01 12:01:54;;;;;;;3.92;0.52;;;8.00;69.20;;;;;;5018760;28;20104;-71
2022/04/01 12:04:28;;;;;;;2.90;0.85;;;8.00;70.20;;;;;;5002117;28;20336;-70
2022/04/01 12:09:39;;;;;;;2.28;0.93;;;8.50;71.30;;;;;;5020306;28;20065;-69
2022/04/01 12:12:06;;;;;;;3.85;0.85;;;8.60;69.70;;;;;;5005244;28;20033;-71
2022/04/01 12:14:33;;;;;;;2.47;0.75;;;8.60;70.80;;;;;;5022658;28;20028;-71
2022/04/01 12:17:05;;;;;;;1.80;1.00;;;8.50;72.00;;;;;;5023108;28;20022;-71
2022/04/01 12:19:32;;;;;;;;;;;8.50;70.90;;;;;;5038075;28;20034;-69
2022/04/01 12:21:59;;;;;;;2.17;0.70;;;8.70;71.40;;;;;;5022340;28;20000;-70
2022/04/01 12:24:27;;;;;;;2.38;0.80;;;8.90;71.20;;;;;;5017937;28;20022;-70
2022/04/01 12:26:53;;;;;;;3.22;0.90;;;9.00;72.00;;;;;;4985801;28;20037;-69
2022/04/01 12:29:21;;;;;;;5.65;1.30;;;9.40;72.10;;;;;;5021388;28;20030;-72
2022/04/01 12:31:52;;;;;;;1.67;0.65;;;9.30;70.80;;;;;;5021527;28;20026;-72
2022/04/01 12:34:18;;;;;;;4.57;0.70;;;9.00;67.90;;;;;;5022047;28;20049;-70
2022/04/01 12:36:53;;;;;;;1.48;0.80;;;8.70;68.60;;;;;;5019928;28;20241;-70
2022/04/01 12:39:18;;;;;;;1.05;0.63;;;8.60;68.40;;;;;;5006765;28;20022;-70
2022/04/01 12:42:09;;;;;;;3.13;0.80;;;8.70;66.70;;;;;;5012828;28;20036;-71
2022/04/01 12:44:36;;;;;;;3.35;0.68;;;8.70;66.50;;;;;;5025119;28;20046;-69
2022/04/01 12:47:03;;;;;;;0.77;0.70;;;8.80;65.60;;;;;;5002067;28;20313;-69
2022/04/01 12:49:33;;;;;;;0.52;0.50;;;8.80;65.40;;;;;;5002378;28;20022;-69
2022/04/01 12:52:02;;;;;;;0.98;0.70;;;9.10;66.00;;;;;;5030794;28;20102;-68
2022/04/01 12:54:39;;;;;;;4.68;1.00;;;9.00;65.80;;;;;;5022053;28;20022;-72
2022/04/01 12:57:08;;;;;;;0.45;0.40;;;9.10;68.20;;;;;;4989504;28;20094;-68
2022/04/01 12:59:37;;;;;;;2.83;0.80;;;9.10;68.20;;;;;;4989087;28;20093;-70
2022/04/01 13:02:07;;;;;;;3.25;0.90;;;9.00;68.80;;;;;;5020232;28;20308;-69
2022/04/01 13:04:54;;;;;;;1.30;0.50;;;8.60;69.70;;;;;;5022011;28;20030;-70
2022/04/01 13:07:28;;;;;;;3.15;0.50;;;8.70;69.50;;;;;;4992234;28;20102;-71
2022/04/01 13:09:57;;;;;;;2.88;0.70;;;8.60;67.80;;;;;;5006711;28;20021;-68
2022/04/01 13:12:40;;;;;;;2.60;0.70;;;8.60;67.00;;;;;;4987602;28;20356;-72
2022/04/01 13:15:09;;;;;;;3.88;0.90;;;8.80;68.30;;;;;;5001640;28;20029;-72
2022/04/01 13:17:56;;;;;;;1.23;0.80;;;9.00;68.00;;;;;;5007544;28;20022;-71
2022/04/01 13:20:31;;;;;;;1.23;0.80;;;9.20;69.20;;;;;;5022938;28;20186;-71
2022/04/01 13:22:59;;;;;;;1.42;0.90;;;9.30;69.10;;;;;;5016396;28;20018;-70
2022/04/01 13:25:27;;;;;;;5.50;1.08;;;9.30;69.00;;;;;;5023787;28;20030;-69
2022/04/01 13:27:56;;;;;;;0.80;0.60;;;9.40;68.20;;;;;;5022546;28;20046;-70
2022/04/01 13:30:22;;;;;;;2.55;0.85;;;9.10;66.90;;;;;;5013921;28;20065;-70